createdAt,value
2018-07-27T00:03:44.630Z,100799.00
2018-07-27T00:09:48.450Z,100797.00
2018-07-27T00:15:52.078Z,100791.00
2018-07-27T00:21:55.971Z,100787.00
2018-07-27T00:28:00.291Z,100782.00
2018-07-27T00:34:03.843Z,100785.00
2018-07-27T00:40:07.129Z,100778.00
2018-07-27T00:46:10.986Z,100780.00
2018-07-27T00:52:14.747Z,100776.00
2018-07-27T00:58:18.284Z,100779.00
2018-07-27T01:04:21.853Z,100774.00
2018-07-27T01:10:25.994Z,100771.00
2018-07-27T01:16:30.375Z,100776.00
2018-07-27T01:22:34.321Z,100782.00
2018-07-27T01:28:37.740Z,100774.00
2018-07-27T01:34:41.162Z,100767.00
2018-07-27T01:40:44.651Z,100782.00
2018-07-27T01:46:48.790Z,100783.00
2018-07-27T01:52:52.222Z,100779.00
2018-07-27T01:58:55.700Z,100768.00
2018-07-27T02:05:00.319Z,100764.00
2018-07-27T02:11:03.948Z,100760.00
2018-07-27T02:17:07.481Z,100755.00
2018-07-27T02:23:11.014Z,100756.00
2018-07-27T02:29:14.329Z,100750.00
2018-07-27T02:35:17.851Z,100748.00
2018-07-27T02:41:21.322Z,100741.00
2018-07-27T02:47:24.849Z,100739.00
2018-07-27T02:53:28.310Z,100738.00
2018-07-27T02:59:31.723Z,100741.00
2018-07-27T03:05:35.182Z,100737.00
2018-07-27T03:11:38.993Z,100739.00
2018-07-27T03:17:42.397Z,100741.00
2018-07-27T03:23:46.023Z,100726.00
2018-07-27T03:29:49.649Z,100736.00
2018-07-27T03:35:53.490Z,100740.00
2018-07-27T03:41:57.288Z,100729.00
2018-07-27T03:48:05.259Z,100723.00
2018-07-27T03:54:08.941Z,100727.00
2018-07-27T04:00:13.591Z,100724.00
2018-07-27T04:06:17.982Z,100723.00
2018-07-27T04:12:23.727Z,100730.00
2018-07-27T04:18:27.958Z,100738.00
2018-07-27T04:24:32.290Z,100728.00
2018-07-27T04:30:36.320Z,100737.00
2018-07-27T04:36:40.491Z,100745.00
2018-07-27T04:42:44.542Z,100743.00
2018-07-27T04:48:48.262Z,100738.00
2018-07-27T04:54:51.753Z,100739.00
2018-07-27T05:00:56.121Z,100744.00
2018-07-27T05:06:59.656Z,100741.00
2018-07-27T05:13:03.166Z,100747.00
2018-07-27T05:19:06.583Z,100752.00
2018-07-27T05:25:10.377Z,100751.00
2018-07-27T05:31:13.889Z,100749.00
2018-07-27T05:37:17.853Z,100746.00
2018-07-27T05:43:21.764Z,100739.00
2018-07-27T05:49:25.557Z,100746.00
2018-07-27T05:55:29.684Z,100749.00
2018-07-27T06:01:33.172Z,100735.00
2018-07-27T06:07:37.167Z,100746.00
2018-07-27T06:13:40.877Z,100737.00
2018-07-27T06:19:44.214Z,100732.00
2018-07-27T06:25:51.600Z,100733.00
2018-07-27T06:31:55.945Z,100727.00
2018-07-27T06:37:59.797Z,100734.00
2018-07-27T06:44:03.205Z,100735.00
2018-07-27T06:50:07.446Z,100726.00
2018-07-27T06:56:11.190Z,100728.00
2018-07-27T07:02:15.113Z,100736.00
2018-07-27T07:08:18.688Z,100727.00
2018-07-27T07:14:22.140Z,100728.00
2018-07-27T07:20:25.831Z,100728.00
2018-07-27T07:26:29.218Z,100733.00
2018-07-27T07:32:32.426Z,100731.00
2018-07-27T07:38:36.118Z,100722.00
2018-07-27T07:44:39.718Z,100718.00
2018-07-27T07:50:43.337Z,100710.00
2018-07-27T07:56:46.700Z,100717.00
2018-07-27T08:02:50.090Z,100710.00
2018-07-27T08:08:54.074Z,100705.00
2018-07-27T08:14:58.481Z,100698.00
2018-07-27T08:21:02.494Z,100701.00
2018-07-27T08:27:06.766Z,100688.00
2018-07-27T08:33:10.782Z,100689.00
2018-07-27T08:39:16.674Z,100683.00
2018-07-27T08:45:20.336Z,100682.00
2018-07-27T08:51:23.707Z,100676.00
2018-07-27T08:57:27.557Z,100679.00
2018-07-27T09:03:31.953Z,100676.00
2018-07-27T09:09:35.369Z,100671.00
2018-07-27T09:15:39.433Z,100664.00
2018-07-27T09:21:43.559Z,100662.00
2018-07-27T09:27:47.036Z,100664.00
2018-07-27T09:33:51.200Z,100656.00
2018-07-27T09:39:54.976Z,100655.00
2018-07-27T09:45:58.555Z,100654.00
2018-07-27T09:52:01.871Z,100658.00
2018-07-27T09:58:05.654Z,100651.00
2018-07-27T10:04:09.102Z,100640.00
2018-07-27T10:10:12.483Z,100637.00
2018-07-27T10:16:16.050Z,100644.00
2018-07-27T10:22:19.905Z,100636.00
2018-07-27T10:28:23.606Z,100621.00
2018-07-27T10:34:27.785Z,100628.00
2018-07-27T10:40:32.053Z,100615.00
2018-07-27T10:46:35.805Z,100616.00
2018-07-27T10:52:39.299Z,100606.00
2018-07-27T10:58:42.712Z,100610.00
2018-07-27T11:04:46.464Z,100601.00
2018-07-27T11:10:50.053Z,100598.00
2018-07-27T11:16:53.581Z,100592.00
2018-07-27T11:22:57.072Z,100581.00
2018-07-27T11:29:00.508Z,100581.00
2018-07-27T11:35:04.629Z,100578.00
2018-07-27T11:41:08.240Z,100567.00
2018-07-27T11:47:11.978Z,100553.00
2018-07-27T11:53:15.409Z,100546.00
2018-07-27T11:59:18.951Z,100538.00
2018-07-27T12:05:23.641Z,100534.00
2018-07-27T12:11:28.265Z,100526.00
2018-07-27T12:17:31.694Z,100525.00
2018-07-27T12:23:35.675Z,100508.00
2018-07-27T12:29:39.050Z,100508.00
2018-07-27T12:35:42.767Z,100495.00
2018-07-27T12:41:46.087Z,100489.00
2018-07-27T12:47:50.414Z,100496.00
2018-07-27T12:53:53.727Z,100479.00
2018-07-27T12:59:57.025Z,100472.00
2018-07-27T13:06:00.527Z,100470.00
2018-07-27T13:12:03.932Z,100455.00
2018-07-27T13:18:07.445Z,100453.00
2018-07-27T13:24:10.973Z,100443.00
2018-07-27T13:30:14.746Z,100435.00
2018-07-27T13:36:18.167Z,100443.00
2018-07-27T13:42:23.783Z,100429.00
2018-07-27T13:48:27.097Z,100420.00
2018-07-27T13:54:31.638Z,100417.00
2018-07-27T14:00:35.772Z,100409.00
2018-07-27T14:06:39.081Z,100397.00
2018-07-27T14:12:42.520Z,100397.00
2018-07-27T14:18:46.127Z,100382.00
2018-07-27T14:24:49.697Z,100378.00
2018-07-27T14:30:53.545Z,100367.00
2018-07-27T14:36:58.124Z,100359.00
2018-07-27T14:43:01.849Z,100354.00
2018-07-27T14:49:09.463Z,100350.00
2018-07-27T14:55:12.905Z,100343.00
2018-07-27T15:01:16.105Z,100338.00
2018-07-27T15:07:20.071Z,100337.00
2018-07-27T15:13:23.733Z,100336.00
2018-07-27T15:19:27.082Z,100322.00
2018-07-27T15:25:30.910Z,100326.00
2018-07-27T15:31:34.609Z,100315.00
2018-07-27T15:37:38.113Z,100316.00
2018-07-27T15:43:42.070Z,100300.00
2018-07-27T15:49:53.899Z,100293.00
2018-07-27T15:56:00.640Z,100305.00
2018-07-27T16:02:05.673Z,100296.00
2018-07-27T16:08:08.990Z,100298.00
2018-07-27T16:14:12.448Z,100288.00
2018-07-27T16:20:16.023Z,100277.00
2018-07-27T16:26:19.889Z,100275.00
2018-07-27T16:32:23.788Z,100270.00
2018-07-27T16:38:27.640Z,100264.00
2018-07-27T16:44:31.352Z,100268.00
2018-07-27T16:50:35.549Z,100257.00
2018-07-27T16:56:39.227Z,100257.00
2018-07-27T17:02:42.668Z,100262.00
2018-07-27T17:08:46.290Z,100251.00
2018-07-27T17:14:49.968Z,100248.00
2018-07-27T17:20:53.351Z,100249.00
2018-07-27T17:26:56.759Z,100248.00
2018-07-27T17:33:00.318Z,100250.00
2018-07-27T17:39:06.065Z,100234.00
2018-07-27T17:45:10.156Z,100237.00
2018-07-27T17:51:13.661Z,100234.00
2018-07-27T17:57:17.374Z,100226.00
2018-07-27T18:03:21.936Z,100219.00
2018-07-27T18:09:25.410Z,100223.00
2018-07-27T18:15:28.982Z,100213.00
2018-07-27T18:21:32.396Z,100216.00
2018-07-27T18:27:36.226Z,100222.00
2018-07-27T18:33:40.025Z,100214.00
2018-07-27T18:39:44.341Z,100211.00
2018-07-27T18:45:47.903Z,100210.00
2018-07-27T18:51:58.519Z,100217.00
2018-07-27T18:58:07.315Z,100215.00
2018-07-27T19:04:11.094Z,100216.00
2018-07-27T19:10:14.629Z,100213.00
2018-07-27T19:16:18.248Z,100209.00
2018-07-27T19:22:21.803Z,100204.00
2018-07-27T19:28:25.386Z,100208.00
2018-07-27T19:34:36.363Z,100216.00
2018-07-27T19:40:39.923Z,100197.00
2018-07-27T19:46:43.470Z,100195.00
2018-07-27T19:52:47.094Z,100193.00
2018-07-27T19:58:50.720Z,100195.00
2018-07-27T20:04:55.000Z,100205.00
2018-07-27T20:10:58.517Z,100210.00
2018-07-27T20:17:02.284Z,100207.00
2018-07-27T20:23:05.794Z,100208.00
2018-07-27T20:29:09.363Z,100207.00
2018-07-27T20:35:12.972Z,100203.00
2018-07-27T20:41:16.381Z,100192.00
2018-07-27T20:47:20.542Z,100210.00
2018-07-27T20:53:24.373Z,100205.00
2018-07-27T20:59:28.570Z,100210.00
2018-07-27T21:05:32.992Z,100206.00
2018-07-27T21:11:36.854Z,100201.00
2018-07-27T21:17:41.518Z,100196.00
2018-07-27T21:23:50.868Z,100182.00
2018-07-27T21:30:01.560Z,100202.00
2018-07-27T21:36:05.137Z,100191.00
2018-07-27T21:42:08.550Z,100189.00
2018-07-27T21:48:12.095Z,100195.00
2018-07-27T21:54:16.185Z,100193.00
2018-07-27T22:00:19.642Z,100191.00
2018-07-27T22:06:23.635Z,100172.00
2018-07-27T22:12:27.640Z,100169.00
2018-07-27T22:18:31.264Z,100160.00
2018-07-27T22:24:34.660Z,100154.00
2018-07-27T22:30:38.643Z,100155.00
2018-07-27T22:36:42.244Z,100145.00
2018-07-27T22:42:45.811Z,100143.00
2018-07-27T22:48:49.594Z,100133.00
2018-07-27T22:54:53.047Z,100138.00
2018-07-27T23:00:56.423Z,100129.00
2018-07-27T23:07:00.424Z,100120.00
2018-07-27T23:13:04.549Z,100125.00
2018-07-27T23:19:08.217Z,100125.00
2018-07-27T23:25:11.909Z,100117.00
2018-07-27T23:31:15.250Z,100113.00
2018-07-27T23:37:18.754Z,100112.00
2018-07-27T23:43:21.929Z,100105.00
2018-07-27T23:49:25.899Z,100101.00
2018-07-27T23:55:29.340Z,100094.00
